createdAt,value
2017-03-30T00:02:54.023Z,0
2017-03-30T00:03:23.088Z,0
2017-03-30T00:03:51.594Z,0
2017-03-30T00:04:20.603Z,0
2017-03-30T00:05:43.376Z,0
2017-03-30T00:06:11.627Z,0
2017-03-30T00:06:40.030Z,0
2017-03-30T00:07:08.684Z,0
2017-03-30T00:07:36.918Z,0
2017-03-30T00:14:53.697Z,0
2017-03-30T00:15:22.709Z,0
2017-03-30T00:15:51.466Z,0
2017-03-30T00:16:19.944Z,0
2017-03-30T00:16:48.847Z,0
2017-03-30T00:17:16.950Z,0
2017-03-30T00:20:34.491Z,0
2017-03-30T00:21:02.713Z,0
2017-03-30T00:22:25.468Z,0
2017-03-30T00:22:53.878Z,0
2017-03-30T00:23:22.628Z,0
2017-03-30T00:23:51.066Z,0
2017-03-30T00:28:13.979Z,0
2017-03-30T00:28:42.382Z,0
2017-03-30T00:29:11.830Z,0
2017-03-30T00:29:40.954Z,0
2017-03-30T00:34:03.152Z,0
2017-03-30T00:34:32.429Z,0
2017-03-30T00:35:00.918Z,0
2017-03-30T00:35:29.625Z,0
2017-03-30T00:35:58.233Z,0
2017-03-30T00:36:26.632Z,0
2017-03-30T00:36:55.112Z,0
2017-03-30T00:40:23.670Z,0
2017-03-30T00:40:52.038Z,0
2017-03-30T00:41:34.735Z,0
2017-03-30T00:43:03.599Z,0
2017-03-30T00:43:31.804Z,0
2017-03-30T00:46:42.933Z,0
2017-03-30T00:47:12.337Z,0
2017-03-30T00:47:40.653Z,0
2017-03-30T00:48:09.136Z,0
2017-03-30T00:48:37.535Z,0
2017-03-30T00:49:06.332Z,0
2017-03-30T00:49:34.656Z,0
2017-03-30T00:52:03.440Z,0
2017-03-30T00:52:31.779Z,0
2017-03-30T00:53:00.089Z,0
2017-03-30T00:53:29.153Z,0
2017-03-30T00:53:57.261Z,0
2017-03-30T00:56:02.708Z,0
2017-03-30T00:56:31.840Z,0
2017-03-30T00:57:43.253Z,0
2017-03-30T00:58:11.999Z,0
2017-03-30T00:58:40.269Z,0
2017-03-30T01:00:03.005Z,0
2017-03-30T01:00:31.499Z,0
2017-03-30T01:04:43.576Z,0
2017-03-30T01:05:12.314Z,0
2017-03-30T01:05:41.540Z,0
2017-03-30T01:06:10.089Z,0
2017-03-30T01:06:39.006Z,0
2017-03-30T01:07:07.297Z,0
2017-03-30T01:07:35.481Z,0
2017-03-30T01:08:04.508Z,0
2017-03-30T01:08:33.592Z,0
2017-03-30T01:11:02.679Z,0
2017-03-30T01:11:30.788Z,0
2017-03-30T01:11:59.883Z,0
2017-03-30T01:16:22.194Z,0
2017-03-30T01:16:51.207Z,0
2017-03-30T01:17:19.488Z,0
2017-03-30T01:17:48.418Z,0
2017-03-30T01:18:16.549Z,0
2017-03-30T01:19:23.255Z,0
2017-03-30T01:19:51.644Z,0
2017-03-30T01:20:19.955Z,0
2017-03-30T01:20:48.486Z,0
2017-03-30T01:21:17.079Z,0
2017-03-30T01:21:45.649Z,0
2017-03-30T01:22:13.892Z,0
2017-03-30T01:22:42.530Z,0
2017-03-30T01:23:10.919Z,0
2017-03-30T01:24:22.496Z,0
2017-03-30T01:24:50.595Z,0
2017-03-30T01:26:13.842Z,0
2017-03-30T01:26:42.623Z,0
2017-03-30T01:27:11.778Z,0
2017-03-30T01:27:40.861Z,0
2017-03-30T01:29:35.004Z,0
2017-03-30T01:30:03.506Z,0
2017-03-30T01:30:31.863Z,0
2017-03-30T01:31:00.991Z,0
2017-03-30T01:31:29.431Z,0
2017-03-30T01:31:57.951Z,0
2017-03-30T01:32:26.646Z,0
2017-03-30T01:32:55.271Z,0
2017-03-30T01:33:24.080Z,0
2017-03-30T01:34:29.867Z,0
2017-03-30T01:34:58.098Z,0
2017-03-30T01:35:26.343Z,0
2017-03-30T01:39:31.949Z,0
2017-03-30T01:40:00.202Z,0
2017-03-30T01:40:29.177Z,0
2017-03-30T01:41:51.946Z,0
2017-03-30T01:42:20.763Z,0
2017-03-30T01:42:49.054Z,0
2017-03-30T01:44:11.879Z,0
2017-03-30T01:44:40.269Z,0
2017-03-30T01:45:51.872Z,0
2017-03-30T01:46:20.504Z,0
2017-03-30T01:46:48.861Z,0
2017-03-30T01:47:17.817Z,0
2017-03-30T01:47:46.292Z,0
2017-03-30T01:48:14.455Z,0
2017-03-30T01:50:31.698Z,0
2017-03-30T01:51:00.075Z,0
2017-03-30T01:51:29.083Z,0
2017-03-30T01:51:57.327Z,0
2017-03-30T01:53:14.279Z,0
2017-03-30T01:53:42.311Z,0
2017-03-30T01:54:11.093Z,0
2017-03-30T01:54:40.186Z,0
2017-03-30T01:55:09.479Z,0
2017-03-30T01:55:38.473Z,0
2017-03-30T01:56:07.490Z,0
2017-03-30T01:56:36.149Z,0
2017-03-30T01:57:04.167Z,0
2017-03-30T01:57:33.194Z,0
2017-03-30T01:58:01.583Z,0
2017-03-30T01:58:29.884Z,0
2017-03-30T01:59:41.044Z,0
2017-03-30T02:00:10.022Z,0
2017-03-30T02:05:21.873Z,0
2017-03-30T02:05:50.111Z,0
2017-03-30T02:07:12.577Z,0
2017-03-30T02:07:40.872Z,0
2017-03-30T02:08:10.129Z,0
2017-03-30T02:08:38.518Z,0
2017-03-30T02:11:00.933Z,0
2017-03-30T02:11:30.337Z,0
2017-03-30T02:11:58.700Z,0
2017-03-30T02:12:27.142Z,0
2017-03-30T02:12:55.415Z,0
2017-03-30T02:16:49.538Z,0
2017-03-30T02:19:00.714Z,0
2017-03-30T02:19:29.805Z,0
2017-03-30T02:19:57.845Z,0
2017-03-30T02:20:27.074Z,0
2017-03-30T02:20:55.219Z,0
2017-03-30T02:22:00.564Z,0
2017-03-30T02:22:29.961Z,0
2017-03-30T02:22:58.459Z,0
2017-03-30T02:23:26.719Z,0
2017-03-30T02:23:55.078Z,0
2017-03-30T02:26:01.448Z,0
2017-03-30T02:26:29.599Z,0
2017-03-30T02:26:58.153Z,0
2017-03-30T02:27:26.602Z,0
2017-03-30T02:27:55.013Z,0
2017-03-30T02:40:00.477Z,0
2017-03-30T02:40:28.722Z,0
2017-03-30T02:41:40.481Z,0
2017-03-30T02:42:08.720Z,0
2017-03-30T02:42:38.057Z,0
2017-03-30T02:43:06.343Z,0
2017-03-30T02:43:34.501Z,0
2017-03-30T02:44:40.047Z,0
2017-03-30T02:45:09.380Z,0
2017-03-30T02:45:37.518Z,0
2017-03-30T02:47:59.992Z,0
2017-03-30T02:48:29.706Z,0
2017-03-30T02:48:58.634Z,0
2017-03-30T02:49:27.805Z,0
2017-03-30T02:49:56.195Z,0
2017-03-30T02:50:24.199Z,0
2017-03-30T02:50:53.367Z,0
2017-03-30T02:51:22.360Z,0
2017-03-30T02:51:50.752Z,0
2017-03-30T02:52:19.085Z,0
2017-03-30T02:52:47.764Z,0
2017-03-30T02:53:16.043Z,0
2017-03-30T02:53:44.301Z,0
2017-03-30T02:57:49.723Z,0
2017-03-30T02:58:18.772Z,0
2017-03-30T03:03:29.961Z,0
2017-03-30T03:03:58.265Z,0
2017-03-30T03:06:09.526Z,0
2017-03-30T03:06:38.795Z,0
2017-03-30T03:07:07.127Z,0
2017-03-30T03:08:29.786Z,0
2017-03-30T03:08:58.020Z,0
2017-03-30T03:10:21.225Z,0
2017-03-30T03:13:49.724Z,0
2017-03-30T03:14:18.053Z,0
2017-03-30T03:15:29.358Z,0
2017-03-30T03:15:58.573Z,0
2017-03-30T03:16:26.876Z,0
2017-03-30T03:17:49.845Z,0
2017-03-30T03:18:18.212Z,0
2017-03-30T03:18:46.559Z,0
2017-03-30T03:19:15.491Z,0
2017-03-30T03:19:43.852Z,0
2017-03-30T03:20:12.477Z,0
2017-03-30T03:21:29.530Z,0
2017-03-30T03:21:57.837Z,0
2017-03-30T03:22:26.844Z,0
2017-03-30T03:24:49.490Z,0
2017-03-30T03:25:18.003Z,0
2017-03-30T03:27:29.418Z,0
2017-03-30T03:27:58.862Z,0
2017-03-30T03:28:28.001Z,0
2017-03-30T03:28:56.380Z,0
2017-03-30T03:29:25.399Z,0
2017-03-30T03:29:54.002Z,0
2017-03-30T03:30:22.267Z,0
2017-03-30T03:30:50.799Z,0
2017-03-30T03:31:19.239Z,0
2017-03-30T03:31:48.408Z,0
2017-03-30T03:32:16.843Z,0
2017-03-30T03:32:45.500Z,0
2017-03-30T03:33:14.037Z,0
2017-03-30T03:33:42.649Z,0
2017-03-30T03:34:10.654Z,0
2017-03-30T03:35:38.761Z,0
2017-03-30T03:36:07.832Z,0
2017-03-30T03:36:36.088Z,0
2017-03-30T03:37:05.080Z,0
2017-03-30T03:37:33.491Z,0
2017-03-30T03:38:01.657Z,0
2017-03-30T03:38:30.755Z,0
2017-03-30T03:42:59.020Z,0
2017-03-30T03:43:27.616Z,0
2017-03-30T03:43:56.465Z,0
2017-03-30T03:44:24.864Z,0
2017-03-30T03:44:53.211Z,0
2017-03-30T03:47:58.533Z,0
2017-03-30T03:48:27.604Z,0
2017-03-30T03:48:55.935Z,0
2017-03-30T03:49:25.062Z,0
2017-03-30T03:49:53.242Z,0
2017-03-30T03:50:21.938Z,0
2017-03-30T03:50:50.275Z,0
2017-03-30T03:52:18.464Z,0
2017-03-30T03:52:47.597Z,0
2017-03-30T03:53:15.883Z,0
2017-03-30T03:53:44.857Z,0
2017-03-30T03:54:13.571Z,0
2017-03-30T03:54:42.259Z,0
2017-03-30T03:55:10.540Z,0
2017-03-30T03:55:38.941Z,0
2017-03-30T03:56:07.199Z,0
2017-03-30T03:56:36.556Z,0
2017-03-30T03:57:04.788Z,0
2017-03-30T03:57:33.033Z,0
2017-03-30T03:58:01.670Z,0
2017-03-30T03:58:30.195Z,0
2017-03-30T03:58:58.567Z,0
2017-03-30T03:59:27.000Z,0
2017-03-30T04:00:38.153Z,0
2017-03-30T04:01:07.193Z,0
2017-03-30T04:03:18.675Z,0
2017-03-30T04:03:46.710Z,0
2017-03-30T04:04:15.896Z,0
2017-03-30T04:04:44.247Z,0
2017-03-30T04:05:12.829Z,0
2017-03-30T04:05:41.291Z,0
2017-03-30T04:08:58.437Z,0
2017-03-30T04:09:26.850Z,0
2017-03-30T04:10:38.331Z,0
2017-03-30T04:11:06.871Z,0
2017-03-30T04:12:17.826Z,0
2017-03-30T04:12:46.919Z,0
2017-03-30T04:14:46.596Z,0
2017-03-30T04:17:57.816Z,0
2017-03-30T04:18:26.929Z,0
2017-03-30T04:18:55.435Z,0
2017-03-30T04:19:23.812Z,0
2017-03-30T04:19:52.120Z,0
2017-03-30T04:20:57.578Z,0
2017-03-30T04:21:26.752Z,0
2017-03-30T04:21:55.220Z,0
2017-03-30T04:23:17.983Z,0
2017-03-30T04:23:46.418Z,0
2017-03-30T04:25:57.629Z,0
2017-03-30T04:26:26.897Z,0
2017-03-30T04:26:55.346Z,0
2017-03-30T04:27:23.617Z,0
2017-03-30T04:27:51.815Z,0
2017-03-30T04:28:20.776Z,0
2017-03-30T04:29:37.914Z,0
2017-03-30T04:30:06.193Z,0
2017-03-30T04:30:35.217Z,0
2017-03-30T04:31:03.492Z,0
2017-03-30T04:31:31.976Z,0
2017-03-30T04:36:37.191Z,0
2017-03-30T04:37:06.092Z,0
2017-03-30T04:37:35.150Z,0
2017-03-30T04:38:03.434Z,0
2017-03-30T04:38:32.553Z,0
2017-03-30T04:39:01.171Z,0
2017-03-30T04:39:29.881Z,0
2017-03-30T04:39:58.298Z,0
2017-03-30T04:40:26.547Z,0
2017-03-30T04:40:54.966Z,0
2017-03-30T04:41:23.429Z,0
2017-03-30T04:41:52.137Z,0
2017-03-30T04:42:20.622Z,0
2017-03-30T04:46:37.131Z,0
2017-03-30T04:47:06.195Z,0
2017-03-30T04:47:34.374Z,0
2017-03-30T04:48:03.468Z,0
2017-03-30T04:48:31.737Z,0
2017-03-30T04:51:37.274Z,0
2017-03-30T04:52:05.842Z,0
2017-03-30T04:55:17.222Z,0
2017-03-30T04:55:45.679Z,0
2017-03-30T04:56:14.697Z,0
2017-03-30T04:56:42.840Z,0
2017-03-30T04:57:11.225Z,0
2017-03-30T05:04:16.577Z,0
2017-03-30T05:04:45.576Z,0
2017-03-30T05:05:57.114Z,0
2017-03-30T05:06:25.455Z,0
2017-03-30T05:11:36.854Z,0
2017-03-30T05:12:05.268Z,0
2017-03-30T05:15:16.369Z,0
2017-03-30T05:15:45.478Z,0
2017-03-30T05:16:13.748Z,0
2017-03-30T05:16:42.863Z,0
2017-03-30T05:17:11.239Z,0
2017-03-30T05:17:39.470Z,0
2017-03-30T05:18:08.413Z,0
2017-03-30T05:18:36.727Z,0
2017-03-30T05:19:05.749Z,0
2017-03-30T05:19:34.184Z,0
2017-03-30T05:20:02.555Z,0
2017-03-30T05:20:30.956Z,0
2017-03-30T05:20:59.249Z,0
2017-03-30T05:21:28.510Z,0
2017-03-30T05:21:56.817Z,0
2017-03-30T05:22:25.125Z,0
2017-03-30T05:23:36.194Z,0
2017-03-30T05:24:05.370Z,0
2017-03-30T05:24:33.763Z,0
2017-03-30T05:25:56.187Z,0
2017-03-30T05:26:25.423Z,0
2017-03-30T05:26:53.719Z,0
2017-03-30T05:28:16.098Z,0
2017-03-30T05:28:45.151Z,0
2017-03-30T05:29:13.550Z,0
2017-03-30T05:31:35.989Z,0
2017-03-30T05:32:04.964Z,0
2017-03-30T05:34:15.924Z,0
2017-03-30T05:34:44.987Z,0
2017-03-30T05:35:13.217Z,0
2017-03-30T05:35:42.295Z,0
2017-03-30T05:36:10.496Z,0
2017-03-30T05:37:16.238Z,0
2017-03-30T05:37:44.423Z,0
2017-03-30T05:38:13.351Z,0
2017-03-30T05:39:35.826Z,0
2017-03-30T05:40:04.573Z,0
2017-03-30T05:41:16.433Z,0
2017-03-30T05:41:44.590Z,0
2017-03-30T05:44:55.738Z,0
2017-03-30T05:45:24.738Z,0
2017-03-30T05:46:36.631Z,0
2017-03-30T05:47:04.921Z,0
2017-03-30T05:47:32.993Z,0
2017-03-30T05:48:01.986Z,0
2017-03-30T05:48:30.184Z,0
2017-03-30T05:50:35.495Z,0
2017-03-30T05:51:04.443Z,0
2017-03-30T05:53:15.810Z,0
2017-03-30T05:53:44.019Z,0
2017-03-30T05:54:13.069Z,0
2017-03-30T05:57:35.417Z,0
2017-03-30T05:58:04.437Z,0
2017-03-30T05:58:32.586Z,0
2017-03-30T05:59:01.636Z,0
2017-03-30T05:59:29.846Z,0
2017-03-30T06:01:35.277Z,0
2017-03-30T06:02:04.331Z,0
2017-03-30T06:03:15.262Z,0
2017-03-30T06:03:44.270Z,0
2017-03-30T06:10:55.107Z,0
2017-03-30T06:11:24.166Z,0
2017-03-30T06:11:52.307Z,0
2017-03-30T06:12:21.141Z,0
2017-03-30T06:12:49.419Z,0
2017-03-30T06:13:18.400Z,0
2017-03-30T06:13:46.775Z,0
2017-03-30T06:14:15.016Z,0
2017-03-30T06:14:44.098Z,0
2017-03-30T06:15:12.182Z,0
2017-03-30T06:15:41.108Z,0
2017-03-30T06:16:09.256Z,0
2017-03-30T06:16:38.288Z,0
2017-03-30T06:17:06.581Z,0
2017-03-30T06:17:34.799Z,0
2017-03-30T06:18:03.829Z,0
2017-03-30T06:19:15.283Z,0
2017-03-30T06:19:43.440Z,0
2017-03-30T06:20:12.454Z,0
2017-03-30T06:22:34.799Z,0
2017-03-30T06:23:03.682Z,0
2017-03-30T06:23:32.417Z,0
2017-03-30T06:24:00.826Z,0
2017-03-30T06:24:29.142Z,0
2017-03-30T06:26:34.533Z,0
2017-03-30T06:27:03.583Z,0
2017-03-30T06:31:14.609Z,0
2017-03-30T06:31:43.543Z,0
2017-03-30T06:34:54.847Z,0
2017-03-30T06:35:22.995Z,0
2017-03-30T06:35:51.935Z,0
2017-03-30T06:37:14.366Z,0
2017-03-30T06:37:43.414Z,0
2017-03-30T06:38:11.668Z,0
2017-03-30T06:38:40.675Z,0
2017-03-30T06:39:08.832Z,0
2017-03-30T06:40:15.391Z,0
2017-03-30T06:40:43.660Z,0
2017-03-30T06:41:11.636Z,0
2017-03-30T06:41:40.529Z,0
2017-03-30T06:42:08.706Z,0
2017-03-30T06:42:37.747Z,0
2017-03-30T06:43:05.907Z,0
2017-03-30T06:44:34.230Z,0
2017-03-30T06:45:03.419Z,0
2017-03-30T06:45:31.814Z,0
2017-03-30T06:47:54.189Z,0
2017-03-30T06:48:23.227Z,0
2017-03-30T06:48:51.412Z,0
2017-03-30T06:49:20.497Z,0
2017-03-30T06:50:48.677Z,0
2017-03-30T06:52:54.092Z,0
2017-03-30T06:53:23.136Z,0
2017-03-30T06:53:51.387Z,0
2017-03-30T06:54:20.307Z,0
2017-03-30T06:54:48.557Z,0
2017-03-30T06:55:54.385Z,0
2017-03-30T06:56:22.605Z,0
2017-03-30T06:56:51.578Z,0
2017-03-30T06:58:13.860Z,0
2017-03-30T06:58:42.784Z,0
2017-03-30T06:59:11.551Z,0
2017-03-30T07:01:34.262Z,0
2017-03-30T07:02:02.631Z,0
2017-03-30T07:03:13.839Z,0
2017-03-30T07:03:42.916Z,0
2017-03-30T07:05:53.638Z,0
2017-03-30T07:06:22.590Z,0
2017-03-30T07:09:33.426Z,0
2017-03-30T07:10:02.294Z,0
2017-03-30T07:10:31.279Z,0
2017-03-30T07:12:42.537Z,0
2017-03-30T07:13:54.141Z,0
2017-03-30T07:14:22.392Z,0
2017-03-30T07:15:33.465Z,0
2017-03-30T07:16:02.390Z,0
2017-03-30T07:19:13.191Z,0
2017-03-30T07:19:42.118Z,0
2017-03-30T07:20:11.050Z,0
2017-03-30T07:21:33.342Z,0
2017-03-30T07:22:02.480Z,0
2017-03-30T07:22:30.619Z,0
2017-03-30T07:22:59.554Z,0
2017-03-30T07:23:27.761Z,0
2017-03-30T07:24:33.298Z,0
2017-03-30T07:25:02.247Z,0
2017-03-30T07:26:13.218Z,0
2017-03-30T07:26:42.132Z,0
2017-03-30T07:27:53.569Z,0
2017-03-30T07:28:21.596Z,0
2017-03-30T07:28:50.638Z,0
2017-03-30T07:29:19.590Z,0
2017-03-30T07:29:47.737Z,0
2017-03-30T07:31:53.055Z,0
2017-03-30T07:32:22.041Z,0
2017-03-30T07:33:33.403Z,0
2017-03-30T07:34:01.700Z,0
2017-03-30T07:34:30.587Z,0
2017-03-30T07:35:53.792Z,0
2017-03-30T07:36:22.225Z,0
2017-03-30T07:36:51.162Z,0
2017-03-30T07:37:19.435Z,0
2017-03-30T07:37:47.656Z,0
2017-03-30T07:38:15.790Z,0
2017-03-30T07:38:45.030Z,0
2017-03-30T07:39:13.312Z,0
2017-03-30T07:39:41.539Z,0
2017-03-30T07:40:10.535Z,0
2017-03-30T07:41:32.875Z,0
2017-03-30T07:42:01.713Z,0
2017-03-30T07:43:12.743Z,0
2017-03-30T07:43:41.871Z,0
2017-03-30T07:44:10.159Z,0
2017-03-30T07:44:39.200Z,0
2017-03-30T07:45:07.437Z,0
2017-03-30T07:45:35.762Z,0
2017-03-30T07:46:04.733Z,0
2017-03-30T07:47:32.623Z,0
2017-03-30T07:48:01.638Z,0
2017-03-30T07:49:13.105Z,0
2017-03-30T07:49:41.138Z,0
2017-03-30T07:50:09.289Z,0
2017-03-30T07:50:37.397Z,0
2017-03-30T07:51:05.660Z,0
2017-03-30T07:51:34.660Z,0
2017-03-30T07:53:02.601Z,0
2017-03-30T07:53:31.604Z,0
2017-03-30T07:53:59.908Z,0
2017-03-30T07:54:28.894Z,0
2017-03-30T07:54:57.096Z,0
2017-03-30T07:56:02.489Z,0
2017-03-30T07:56:31.476Z,0
2017-03-30T07:58:42.408Z,0
2017-03-30T07:59:11.345Z,0
2017-03-30T08:01:22.329Z,0
2017-03-30T08:01:51.226Z,0
2017-03-30T08:04:02.282Z,0
2017-03-30T08:04:31.185Z,0
2017-03-30T08:05:42.289Z,0
2017-03-30T08:06:11.258Z,0
2017-03-30T08:06:39.490Z,0
2017-03-30T08:07:08.395Z,0
2017-03-30T08:07:36.570Z,0
2017-03-30T08:08:05.481Z,0
2017-03-30T08:10:22.159Z,0
2017-03-30T08:10:51.159Z,0
2017-03-30T08:11:19.126Z,0
2017-03-30T08:11:47.214Z,0
2017-03-30T08:12:15.352Z,0
2017-03-30T08:12:44.212Z,0
2017-03-30T08:13:55.245Z,0
2017-03-30T08:14:24.180Z,0
2017-03-30T08:16:52.047Z,0
2017-03-30T08:17:20.939Z,0
2017-03-30T08:19:31.958Z,0
2017-03-30T08:20:00.964Z,0
2017-03-30T08:20:29.224Z,0
2017-03-30T08:20:58.238Z,0
2017-03-30T08:21:26.339Z,0
2017-03-30T08:22:31.891Z,0
2017-03-30T08:23:00.849Z,0
2017-03-30T08:25:12.506Z,0
2017-03-30T08:26:40.633Z,0
2017-03-30T08:27:51.731Z,0
2017-03-30T08:28:20.588Z,0
2017-03-30T08:30:31.701Z,0
2017-03-30T08:31:00.741Z,0
2017-03-30T08:31:28.965Z,0
2017-03-30T08:31:57.901Z,0
2017-03-30T08:32:25.904Z,0
2017-03-30T08:32:55.020Z,0
2017-03-30T08:33:23.369Z,0
2017-03-30T08:34:34.535Z,0
2017-03-30T08:35:03.448Z,0
2017-03-30T08:37:31.491Z,0
2017-03-30T08:38:00.415Z,0
2017-03-30T08:39:11.468Z,0
2017-03-30T08:39:40.492Z,0
2017-03-30T08:40:08.779Z,0
2017-03-30T08:40:37.718Z,0
2017-03-30T08:41:05.919Z,0
2017-03-30T08:42:11.334Z,0
2017-03-30T08:42:40.367Z,0
2017-03-30T08:43:08.674Z,0
2017-03-30T08:43:37.745Z,0
2017-03-30T08:44:05.915Z,0
2017-03-30T08:46:11.239Z,0
2017-03-30T08:46:40.160Z,0
2017-03-30T08:47:51.182Z,0
2017-03-30T08:48:20.182Z,0
2017-03-30T08:49:31.196Z,0
2017-03-30T08:50:00.129Z,0
2017-03-30T08:50:28.728Z,0
2017-03-30T08:51:51.065Z,0
2017-03-30T08:52:19.878Z,4
2017-03-30T08:52:48.871Z,4
2017-03-30T08:55:11.074Z,4
2017-03-30T08:55:40.037Z,4
2017-03-30T08:57:52.271Z,8
2017-03-30T08:58:20.503Z,8
2017-03-30T08:58:48.569Z,8
2017-03-30T09:00:10.961Z,16
2017-03-30T09:00:39.944Z,20
2017-03-30T09:01:08.198Z,20
2017-03-30T09:01:37.162Z,24
2017-03-30T09:02:05.447Z,28
2017-03-30T09:06:10.706Z,80
2017-03-30T09:06:39.722Z,92
2017-03-30T09:07:50.737Z,116
2017-03-30T09:08:19.764Z,128
2017-03-30T09:09:30.728Z,160
2017-03-30T09:09:59.603Z,172
2017-03-30T09:11:10.421Z,216
2017-03-30T09:11:39.434Z,236
2017-03-30T09:12:08.407Z,252
2017-03-30T09:13:31.018Z,320
2017-03-30T09:13:59.190Z,344
2017-03-30T09:14:28.233Z,372
2017-03-30T09:16:50.520Z,516
2017-03-30T09:17:19.519Z,544
2017-03-30T09:17:47.818Z,576
2017-03-30T09:18:16.927Z,616
2017-03-30T09:18:45.156Z,648
2017-03-30T09:21:50.377Z,884
2017-03-30T09:22:19.410Z,916
2017-03-30T09:24:30.311Z,1052
2017-03-30T09:24:59.361Z,1080
2017-03-30T09:25:27.626Z,1108
2017-03-30T09:25:56.653Z,1132
2017-03-30T09:26:24.882Z,1160
2017-03-30T09:27:30.324Z,1208
2017-03-30T09:27:59.345Z,1224
2017-03-30T09:28:27.536Z,1248
2017-03-30T09:28:56.456Z,1272
2017-03-30T09:29:24.534Z,1296
2017-03-30T09:29:53.495Z,1320
2017-03-30T09:31:10.241Z,1416
2017-03-30T09:31:39.154Z,1444
2017-03-30T09:33:50.165Z,1488
2017-03-30T09:34:19.205Z,1496
2017-03-30T09:34:47.363Z,1508
2017-03-30T09:35:16.418Z,1512
2017-03-30T09:35:44.650Z,1508
2017-03-30T09:36:50.111Z,1468
2017-03-30T09:37:19.058Z,1444
2017-03-30T09:37:47.201Z,1428
2017-03-30T09:38:16.257Z,1416
2017-03-30T09:38:44.531Z,1408
2017-03-30T09:40:49.887Z,1540
2017-03-30T09:41:18.894Z,1604
2017-03-30T09:42:29.794Z,1768
2017-03-30T09:42:59.360Z,1828
2017-03-30T09:43:27.571Z,1892
2017-03-30T09:43:55.825Z,1960
2017-03-30T09:44:24.062Z,2040
2017-03-30T09:44:53.087Z,2136
2017-03-30T09:46:09.853Z,2432
2017-03-30T09:46:38.661Z,2548
2017-03-30T09:47:49.776Z,2804
2017-03-30T09:48:18.682Z,2848
2017-03-30T09:51:29.662Z,3080
2017-03-30T09:51:58.660Z,3128
2017-03-30T09:57:09.499Z,3948
2017-03-30T10:00:39.483Z,4108
2017-03-30T10:01:08.657Z,4112
2017-03-30T10:01:36.858Z,4144
2017-03-30T10:02:42.424Z,4332
2017-03-30T10:03:11.269Z,4492
2017-03-30T10:04:40.396Z,5216
2017-03-30T10:05:10.217Z,6292
2017-03-30T10:05:41.865Z,7144
2017-03-30T10:06:13.396Z,7296
2017-03-30T10:07:20.660Z,9492
2017-03-30T10:07:52.195Z,9260
2017-03-30T10:08:23.376Z,8556
2017-03-30T10:09:29.871Z,8380
2017-03-30T10:11:00.142Z,8032
2017-03-30T10:11:28.987Z,8316
2017-03-30T10:11:58.222Z,9112
2017-03-30T10:13:09.171Z,10132
2017-03-30T10:13:38.180Z,10044
2017-03-30T10:14:06.316Z,9396
2017-03-30T10:14:35.331Z,8992
2017-03-30T10:15:03.619Z,8640
2017-03-30T10:18:09.094Z,8764
2017-03-30T10:18:37.996Z,8744
2017-03-30T10:22:48.856Z,7440
2017-03-30T10:23:18.187Z,8096
2017-03-30T10:23:46.267Z,8652
2017-03-30T10:24:16.198Z,9312
2017-03-30T10:24:45.365Z,9476
2017-03-30T10:25:13.586Z,10000
2017-03-30T10:28:18.836Z,8024
2017-03-30T10:28:47.866Z,7416
2017-03-30T10:29:15.989Z,7076
2017-03-30T10:29:44.900Z,6756
2017-03-30T10:30:13.032Z,6476
2017-03-30T10:31:18.493Z,6152
2017-03-30T10:31:47.361Z,6224
2017-03-30T10:32:16.590Z,6368
2017-03-30T10:32:44.695Z,6476
2017-03-30T10:33:12.861Z,6580
2017-03-30T10:33:41.901Z,6740
2017-03-30T10:36:58.493Z,6652
2017-03-30T10:37:27.390Z,6648
2017-03-30T10:37:56.290Z,6680
2017-03-30T10:39:18.436Z,6908
2017-03-30T10:39:47.364Z,7084
2017-03-30T10:40:58.564Z,7360
2017-03-30T10:41:27.627Z,7448
2017-03-30T10:41:55.752Z,7564
2017-03-30T10:42:24.808Z,7656
2017-03-30T10:42:52.865Z,7732
2017-03-30T10:43:21.774Z,7792
2017-03-30T10:45:38.318Z,8324
2017-03-30T10:46:07.201Z,8488
2017-03-30T10:47:18.273Z,9052
2017-03-30T10:47:47.194Z,9088
2017-03-30T10:48:58.356Z,9244
2017-03-30T10:49:27.283Z,9248
2017-03-30T10:51:38.309Z,9744
2017-03-30T10:52:07.261Z,9960
2017-03-30T10:54:18.222Z,13612
2017-03-30T10:54:47.216Z,12492
2017-03-30T10:55:15.453Z,13556
2017-03-30T10:55:44.388Z,13220
2017-03-30T10:56:12.551Z,12976
2017-03-30T10:58:18.004Z,12136
2017-03-30T10:58:46.806Z,12360
2017-03-30T10:59:15.696Z,12612
2017-03-30T11:03:37.965Z,12828
2017-03-30T11:04:06.889Z,12552
2017-03-30T11:05:17.898Z,12488
2017-03-30T11:05:46.796Z,12568
2017-03-30T11:07:58.156Z,13892
2017-03-30T11:08:26.236Z,14464
2017-03-30T11:08:55.329Z,15812
2017-03-30T11:09:24.254Z,14504
2017-03-30T11:09:52.621Z,14084
2017-03-30T11:10:20.720Z,15268
2017-03-30T11:10:49.720Z,19136
2017-03-30T11:11:17.791Z,18656
2017-03-30T11:11:46.848Z,15180
2017-03-30T11:12:14.962Z,14952
2017-03-30T11:12:44.015Z,14428
2017-03-30T11:13:12.780Z,14504
2017-03-30T11:13:40.956Z,13072
2017-03-30T11:15:57.702Z,13228
2017-03-30T11:16:26.736Z,12836
2017-03-30T11:16:54.880Z,12828
2017-03-30T11:17:22.936Z,11612
2017-03-30T11:17:51.181Z,11980
2017-03-30T11:18:19.306Z,15544
2017-03-30T11:18:47.502Z,15236
2017-03-30T11:19:16.451Z,13832
2017-03-30T11:22:27.470Z,14480
2017-03-30T11:22:56.522Z,20192
2017-03-30T11:24:07.487Z,11136
2017-03-30T11:24:36.440Z,11292
2017-03-30T11:25:04.664Z,11380
2017-03-30T11:25:33.620Z,11408
2017-03-30T11:26:01.839Z,11504
2017-03-30T11:27:07.284Z,12456
2017-03-30T11:27:36.325Z,14016
2017-03-30T11:29:47.377Z,14872
2017-03-30T11:30:16.411Z,15096
2017-03-30T11:30:44.539Z,16756
2017-03-30T11:31:13.606Z,21184
2017-03-30T11:31:41.778Z,14544
2017-03-30T11:33:47.260Z,16624
2017-03-30T11:34:16.171Z,15692
2017-03-30T11:34:44.468Z,15628
2017-03-30T11:35:13.488Z,15516
2017-03-30T11:35:43.252Z,15036
2017-03-30T11:36:11.515Z,14576
2017-03-30T11:36:40.458Z,14152
2017-03-30T11:38:57.010Z,13876
2017-03-30T11:39:25.958Z,16496
2017-03-30T11:40:37.078Z,16152
2017-03-30T11:41:06.060Z,14168
2017-03-30T11:41:34.363Z,19136
2017-03-30T11:42:03.194Z,23552
2017-03-30T11:42:31.350Z,23744
2017-03-30T11:43:00.561Z,23648
2017-03-30T11:43:28.921Z,23424
2017-03-30T11:44:56.925Z,22144
2017-03-30T11:45:25.879Z,23296
2017-03-30T11:47:25.612Z,21184
2017-03-30T11:47:54.561Z,18304
2017-03-30T11:50:16.868Z,21376
2017-03-30T11:50:45.771Z,20928
2017-03-30T11:51:56.785Z,21984
2017-03-30T11:52:25.600Z,22048
2017-03-30T11:53:36.722Z,22144
2017-03-30T11:54:05.724Z,22464
2017-03-30T11:56:16.704Z,21664
2017-03-30T11:56:45.677Z,22208
2017-03-30T11:57:13.911Z,22528
2017-03-30T11:57:42.937Z,22400
2017-03-30T11:58:11.063Z,21920
2017-03-30T12:00:16.554Z,18336
2017-03-30T12:00:45.502Z,18080
2017-03-30T12:02:57.301Z,23904
2017-03-30T12:03:25.559Z,23872
2017-03-30T12:05:36.504Z,24736
2017-03-30T12:06:05.316Z,12552
2017-03-30T12:07:16.463Z,12688
2017-03-30T12:07:45.502Z,12496
2017-03-30T12:08:13.810Z,15560
2017-03-30T12:08:42.742Z,14196
2017-03-30T12:09:11.175Z,24800
2017-03-30T12:10:28.110Z,25728
2017-03-30T12:10:56.251Z,25184
2017-03-30T12:11:25.219Z,15064
2017-03-30T12:13:36.244Z,28576
2017-03-30T12:14:05.257Z,26080
2017-03-30T12:17:16.182Z,20704
2017-03-30T12:17:45.183Z,24736
2017-03-30T12:18:13.459Z,17248
2017-03-30T12:18:42.495Z,17920
2017-03-30T12:19:10.471Z,25120
2017-03-30T12:19:39.496Z,20320
2017-03-30T12:20:07.817Z,15744
2017-03-30T12:20:36.061Z,24096
2017-03-30T12:21:05.079Z,20448
2017-03-30T12:21:33.463Z,18720
2017-03-30T12:22:02.263Z,14504
2017-03-30T12:22:30.427Z,18592
2017-03-30T12:22:59.500Z,19392
2017-03-30T12:23:27.661Z,16804
2017-03-30T12:23:55.730Z,24672
2017-03-30T12:24:24.735Z,25536
2017-03-30T12:27:35.936Z,12708
2017-03-30T12:28:04.932Z,18144
2017-03-30T12:30:15.890Z,13968
2017-03-30T12:30:44.929Z,13992
2017-03-30T12:33:55.794Z,10160
2017-03-30T12:34:24.695Z,15636
2017-03-30T12:35:36.152Z,17344
2017-03-30T12:36:04.364Z,18240
2017-03-30T12:36:33.421Z,18816
2017-03-30T12:38:55.420Z,20192
2017-03-30T12:39:24.281Z,21376
2017-03-30T12:39:53.190Z,23520
2017-03-30T12:45:15.533Z,15308
2017-03-30T12:45:44.495Z,14764
2017-03-30T12:46:12.714Z,23488
2017-03-30T12:46:40.800Z,22944
2017-03-30T12:47:57.500Z,16192
2017-03-30T12:50:25.338Z,21248
2017-03-30T12:50:54.354Z,24576
2017-03-30T12:53:05.367Z,26048
2017-03-30T12:53:34.407Z,23840
2017-03-30T12:54:02.541Z,15420
2017-03-30T12:54:31.425Z,16064
2017-03-30T12:54:59.585Z,19648
2017-03-30T12:55:28.566Z,17232
2017-03-30T12:56:45.573Z,26528
2017-03-30T12:57:13.730Z,17856
2017-03-30T12:57:42.729Z,26176
2017-03-30T12:59:05.153Z,21536
2017-03-30T12:59:33.941Z,19456
2017-03-30T13:01:33.888Z,17824
2017-03-30T13:02:44.810Z,17920
2017-03-30T13:03:12.737Z,21600
2017-03-30T13:05:34.917Z,20896
2017-03-30T13:06:03.926Z,16620
2017-03-30T13:09:14.837Z,9260
2017-03-30T13:09:43.874Z,19904